sensor_id;sensor_type;location;lat;lon;timestamp;temperature;humidity
21518;DHT22;61765;45.794;24.150;2024-02-16T00:06:36;8.30;85.40
21518;DHT22;61765;45.794;24.150;2024-02-16T00:14:44;7.60;86.60
21518;DHT22;61765;45.794;24.150;2024-02-16T00:22:50;7.40;88.80
21518;DHT22;61765;45.794;24.150;2024-02-16T00:30:58;7.30;88.00
21518;DHT22;61765;45.794;24.150;2024-02-16T00:39:04;7.30;88.40
21518;DHT22;61765;45.794;24.150;2024-02-16T00:47:13;7.30;88.00
21518;DHT22;61765;45.794;24.150;2024-02-16T00:55:18;7.50;87.90
21518;DHT22;61765;45.794;24.150;2024-02-16T01:03:27;7.60;86.40
21518;DHT22;61765;45.794;24.150;2024-02-16T01:11:33;7.30;87.50
21518;DHT22;61765;45.794;24.150;2024-02-16T01:19:41;7.20;88.10
21518;DHT22;61765;45.794;24.150;2024-02-16T01:27:50;7.20;87.70
21518;DHT22;61765;45.794;24.150;2024-02-16T01:35:59;6.80;88.50
21518;DHT22;61765;45.794;24.150;2024-02-16T01:44:05;6.50;89.80
21518;DHT22;61765;45.794;24.150;2024-02-16T01:52:14;7.00;89.60
21518;DHT22;61765;45.794;24.150;2024-02-16T02:00:20;6.70;88.50
21518;DHT22;61765;45.794;24.150;2024-02-16T02:08:28;6.80;89.40
21518;DHT22;61765;45.794;24.150;2024-02-16T02:16:35;6.90;88.40
21518;DHT22;61765;45.794;24.150;2024-02-16T02:24:59;7.10;87.60
21518;DHT22;61765;45.794;24.150;2024-02-16T02:33:05;6.80;88.20
21518;DHT22;61765;45.794;24.150;2024-02-16T03:08:11;6.20;89.80
21518;DHT22;61765;45.794;24.150;2024-02-16T03:16:17;6.00;90.20
21518;DHT22;61765;45.794;24.150;2024-02-16T03:24:25;6.00;90.00
21518;DHT22;61765;45.794;24.150;2024-02-16T03:32:32;6.10;90.40
21518;DHT22;61765;45.794;24.150;2024-02-16T03:40:40;6.10;89.80
21518;DHT22;61765;45.794;24.150;2024-02-16T03:48:46;6.20;89.50
21518;DHT22;61765;45.794;24.150;2024-02-16T03:56:56;6.20;89.20
21518;DHT22;61765;45.794;24.150;2024-02-16T04:05:02;6.00;90.20
21518;DHT22;61765;45.794;24.150;2024-02-16T04:13:13;6.30;89.30
21518;DHT22;61765;45.794;24.150;2024-02-16T04:21:18;6.00;89.60
21518;DHT22;61765;45.794;24.150;2024-02-16T04:29:27;6.50;89.20
21518;DHT22;61765;45.794;24.150;2024-02-16T04:37:33;6.20;89.80
21518;DHT22;61765;45.794;24.150;2024-02-16T04:45:50;6.30;90.20
21518;DHT22;61765;45.794;24.150;2024-02-16T04:53:57;6.20;89.80
21518;DHT22;61765;45.794;24.150;2024-02-16T05:02:05;6.10;90.00
21518;DHT22;61765;45.794;24.150;2024-02-16T05:10:11;6.10;89.80
21518;DHT22;61765;45.794;24.150;2024-02-16T05:18:21;5.90;90.10
21518;DHT22;61765;45.794;24.150;2024-02-16T05:26:27;5.60;90.20
21518;DHT22;61765;45.794;24.150;2024-02-16T05:34:36;5.90;90.30
21518;DHT22;61765;45.794;24.150;2024-02-16T05:42:42;5.60;90.50
21518;DHT22;61765;45.794;24.150;2024-02-16T05:50:51;5.80;90.50
21518;DHT22;61765;45.794;24.150;2024-02-16T05:58:57;5.70;90.30
21518;DHT22;61765;45.794;24.150;2024-02-16T06:07:05;5.60;90.60
21518;DHT22;61765;45.794;24.150;2024-02-16T06:15:11;5.90;90.60
21518;DHT22;61765;45.794;24.150;2024-02-16T06:23:20;5.90;90.70
21518;DHT22;61765;45.794;24.150;2024-02-16T06:31:26;6.40;90.50
21518;DHT22;61765;45.794;24.150;2024-02-16T06:39:34;6.80;90.20
21518;DHT22;61765;45.794;24.150;2024-02-16T06:47:40;6.70;89.00
21518;DHT22;61765;45.794;24.150;2024-02-16T06:55:49;7.50;87.20
21518;DHT22;61765;45.794;24.150;2024-02-16T07:03:55;7.70;86.30
21518;DHT22;61765;45.794;24.150;2024-02-16T07:12:04;7.70;86.00
21518;DHT22;61765;45.794;24.150;2024-02-16T07:20:11;8.20;85.60
21518;DHT22;61765;45.794;24.150;2024-02-16T07:28:20;8.90;84.00
21518;DHT22;61765;45.794;24.150;2024-02-16T07:36:26;9.20;82.10
21518;DHT22;61765;45.794;24.150;2024-02-16T07:44:35;9.20;81.80
21518;DHT22;61765;45.794;24.150;2024-02-16T07:52:41;9.20;82.30
21518;DHT22;61765;45.794;24.150;2024-02-16T08:00:50;9.40;81.80
21518;DHT22;61765;45.794;24.150;2024-02-16T08:08:57;9.70;81.80
21518;DHT22;61765;45.794;24.150;2024-02-16T08:17:06;9.70;81.20
21518;DHT22;61765;45.794;24.150;2024-02-16T08:25:21;9.40;82.20
21518;DHT22;61765;45.794;24.150;2024-02-16T08:33:29;9.80;81.50
21518;DHT22;61765;45.794;24.150;2024-02-16T08:41:37;10.90;80.30
21518;DHT22;61765;45.794;24.150;2024-02-16T08:49:45;10.60;79.80
21518;DHT22;61765;45.794;24.150;2024-02-16T08:57:52;11.70;78.60
21518;DHT22;61765;45.794;24.150;2024-02-16T09:06:00;12.50;76.10
21518;DHT22;61765;45.794;24.150;2024-02-16T09:14:06;12.80;74.30
21518;DHT22;61765;45.794;24.150;2024-02-16T09:22:15;14.40;75.50
21518;DHT22;61765;45.794;24.150;2024-02-16T09:30:21;21.50;59.80
21518;DHT22;61765;45.794;24.150;2024-02-16T09:38:30;25.90;50.70
21518;DHT22;61765;45.794;24.150;2024-02-16T09:46:36;28.50;44.90
21518;DHT22;61765;45.794;24.150;2024-02-16T09:54:44;27.60;45.30
21518;DHT22;61765;45.794;24.150;2024-02-16T10:02:50;27.90;44.50
21518;DHT22;61765;45.794;24.150;2024-02-16T10:11:04;31.20;42.00
21518;DHT22;61765;45.794;24.150;2024-02-16T10:19:10;34.20;37.50
21518;DHT22;61765;45.794;24.150;2024-02-16T10:27:22;35.30;36.60
21518;DHT22;61765;45.794;24.150;2024-02-16T10:35:29;37.50;34.10
21518;DHT22;61765;45.794;24.150;2024-02-16T10:43:38;38.40;33.80
21518;DHT22;61765;45.794;24.150;2024-02-16T10:51:47;36.70;33.30
21518;DHT22;61765;45.794;24.150;2024-02-16T10:59:56;30.00;36.50
21518;DHT22;61765;45.794;24.150;2024-02-16T11:08:13;24.10;44.00
21518;DHT22;61765;45.794;24.150;2024-02-16T11:16:22;20.80;49.90
21518;DHT22;61765;45.794;24.150;2024-02-16T11:24:32;18.00;54.50
21518;DHT22;61765;45.794;24.150;2024-02-16T11:32:59;16.30;59.10
21518;DHT22;61765;45.794;24.150;2024-02-16T11:42:03;16.30;59.30
21518;DHT22;61765;45.794;24.150;2024-02-16T11:50:27;16.00;60.60
21518;DHT22;61765;45.794;24.150;2024-02-16T11:58:32;15.20;60.00
21518;DHT22;61765;45.794;24.150;2024-02-16T12:06:42;15.40;60.60
21518;DHT22;61765;45.794;24.150;2024-02-16T12:14:50;15.30;61.30
21518;DHT22;61765;45.794;24.150;2024-02-16T12:22:59;15.30;62.10
21518;DHT22;61765;45.794;24.150;2024-02-16T12:31:05;15.30;60.80
21518;DHT22;61765;45.794;24.150;2024-02-16T12:39:14;15.50;62.20
21518;DHT22;61765;45.794;24.150;2024-02-16T12:47:19;15.70;60.80
21518;DHT22;61765;45.794;24.150;2024-02-16T12:55:28;15.00;61.10
21518;DHT22;61765;45.794;24.150;2024-02-16T13:03:34;15.30;61.40
21518;DHT22;61765;45.794;24.150;2024-02-16T13:11:43;15.10;61.40
21518;DHT22;61765;45.794;24.150;2024-02-16T13:19:57;15.00;61.70
21518;DHT22;61765;45.794;24.150;2024-02-16T13:28:12;14.80;61.80
21518;DHT22;61765;45.794;24.150;2024-02-16T13:36:18;15.10;61.60
21518;DHT22;61765;45.794;24.150;2024-02-16T13:44:27;15.40;60.20
21518;DHT22;61765;45.794;24.150;2024-02-16T13:52:33;15.50;60.00
21518;DHT22;61765;45.794;24.150;2024-02-16T14:00:42;15.60;61.00
21518;DHT22;61765;45.794;24.150;2024-02-16T14:08:48;15.80;60.00
21518;DHT22;61765;45.794;24.150;2024-02-16T14:16:58;15.50;59.70
21518;DHT22;61765;45.794;24.150;2024-02-16T14:25:07;15.50;60.20
21518;DHT22;61765;45.794;24.150;2024-02-16T14:33:19;15.10;61.10
21518;DHT22;61765;45.794;24.150;2024-02-16T14:41:35;15.50;60.70
21518;DHT22;61765;45.794;24.150;2024-02-16T14:49:44;15.40;60.60
21518;DHT22;61765;45.794;24.150;2024-02-16T14:57:50;15.10;61.00
21518;DHT22;61765;45.794;24.150;2024-02-16T15:05:59;15.20;61.60
21518;DHT22;61765;45.794;24.150;2024-02-16T15:14:06;15.10;61.90
21518;DHT22;61765;45.794;24.150;2024-02-16T15:22:14;15.10;61.80
21518;DHT22;61765;45.794;24.150;2024-02-16T15:30:20;14.90;62.20
21518;DHT22;61765;45.794;24.150;2024-02-16T15:38:29;15.10;62.20
21518;DHT22;61765;45.794;24.150;2024-02-16T15:46:34;15.00;63.20
21518;DHT22;61765;45.794;24.150;2024-02-16T15:54:45;14.80;63.70
21518;DHT22;61765;45.794;24.150;2024-02-16T16:02:52;14.70;65.30
21518;DHT22;61765;45.794;24.150;2024-02-16T16:11:01;14.50;66.60
21518;DHT22;61765;45.794;24.150;2024-02-16T16:19:07;14.30;68.20
21518;DHT22;61765;45.794;24.150;2024-02-16T16:27:17;14.20;68.10
21518;DHT22;61765;45.794;24.150;2024-02-16T16:35:23;14.10;68.10
21518;DHT22;61765;45.794;24.150;2024-02-16T16:43:32;13.90;68.80
21518;DHT22;61765;45.794;24.150;2024-02-16T16:51:38;13.80;69.80
21518;DHT22;61765;45.794;24.150;2024-02-16T16:59:46;13.70;69.90
21518;DHT22;61765;45.794;24.150;2024-02-16T17:07:52;13.60;70.40
21518;DHT22;61765;45.794;24.150;2024-02-16T17:16:00;13.40;70.90
21518;DHT22;61765;45.794;24.150;2024-02-16T17:24:06;13.30;71.50
21518;DHT22;61765;45.794;24.150;2024-02-16T17:32:15;13.10;71.90
21518;DHT22;61765;45.794;24.150;2024-02-16T17:40:21;12.90;72.70
21518;DHT22;61765;45.794;24.150;2024-02-16T17:48:29;12.70;73.70
21518;DHT22;61765;45.794;24.150;2024-02-16T17:56:36;12.60;74.60
21518;DHT22;61765;45.794;24.150;2024-02-16T18:04:48;12.50;75.20
21518;DHT22;61765;45.794;24.150;2024-02-16T18:12:54;12.40;75.60
21518;DHT22;61765;45.794;24.150;2024-02-16T18:21:04;12.30;76.10
21518;DHT22;61765;45.794;24.150;2024-02-16T18:29:11;12.00;76.80
21518;DHT22;61765;45.794;24.150;2024-02-16T18:37:22;11.90;77.00
21518;DHT22;61765;45.794;24.150;2024-02-16T18:45:28;11.80;77.10
21518;DHT22;61765;45.794;24.150;2024-02-16T18:53:39;11.70;77.60
21518;DHT22;61765;45.794;24.150;2024-02-16T19:01:46;11.60;78.80
21518;DHT22;61765;45.794;24.150;2024-02-16T19:09:55;11.50;78.60
21518;DHT22;61765;45.794;24.150;2024-02-16T19:18:01;11.50;78.90
21518;DHT22;61765;45.794;24.150;2024-02-16T19:35:08;11.50;78.90
21518;DHT22;61765;45.794;24.150;2024-02-16T19:43:22;11.30;79.40
21518;DHT22;61765;45.794;24.150;2024-02-16T19:51:33;11.00;79.60
21518;DHT22;61765;45.794;24.150;2024-02-16T19:59:41;10.80;80.60
21518;DHT22;61765;45.794;24.150;2024-02-16T20:07:49;10.80;80.60
21518;DHT22;61765;45.794;24.150;2024-02-16T20:15:55;10.60;81.10
21518;DHT22;61765;45.794;24.150;2024-02-16T20:24:04;10.40;81.30
21518;DHT22;61765;45.794;24.150;2024-02-16T20:32:11;10.20;81.80
21518;DHT22;61765;45.794;24.150;2024-02-16T20:40:19;10.40;81.40
21518;DHT22;61765;45.794;24.150;2024-02-16T20:48:26;10.20;81.70
21518;DHT22;61765;45.794;24.150;2024-02-16T20:56:34;10.60;81.40
21518;DHT22;61765;45.794;24.150;2024-02-16T21:04:40;10.70;81.20
21518;DHT22;61765;45.794;24.150;2024-02-16T21:12:49;10.30;81.60
21518;DHT22;61765;45.794;24.150;2024-02-16T21:20:54;9.80;82.30
21518;DHT22;61765;45.794;24.150;2024-02-16T21:29:03;9.60;83.40
21518;DHT22;61765;45.794;24.150;2024-02-16T21:37:09;9.90;83.00
21518;DHT22;61765;45.794;24.150;2024-02-16T21:45:19;9.90;82.60
21518;DHT22;61765;45.794;24.150;2024-02-16T21:53:25;9.30;83.50
21518;DHT22;61765;45.794;24.150;2024-02-16T22:01:34;8.70;84.50
21518;DHT22;61765;45.794;24.150;2024-02-16T22:18:07;8.90;84.00
21518;DHT22;61765;45.794;24.150;2024-02-16T22:26:27;8.90;84.90
21518;DHT22;61765;45.794;24.150;2024-02-16T22:34:40;9.00;84.70
21518;DHT22;61765;45.794;24.150;2024-02-16T22:42:46;8.90;84.80
21518;DHT22;61765;45.794;24.150;2024-02-16T22:50:54;8.90;85.40
21518;DHT22;61765;45.794;24.150;2024-02-16T22:59:00;8.80;86.10
21518;DHT22;61765;45.794;24.150;2024-02-16T23:07:08;9.10;85.70
21518;DHT22;61765;45.794;24.150;2024-02-16T23:15:15;9.00;84.80
21518;DHT22;61765;45.794;24.150;2024-02-16T23:23:24;8.90;84.80
21518;DHT22;61765;45.794;24.150;2024-02-16T23:31:29;8.90;85.40
21518;DHT22;61765;45.794;24.150;2024-02-16T23:39:38;8.70;85.10
21518;DHT22;61765;45.794;24.150;2024-02-16T23:47:44;8.70;84.70
21518;DHT22;61765;45.794;24.150;2024-02-16T23:55:56;8.80;85.40
